sensor_id;sensor_type;location;lat;lon;timestamp;pressure;altitude;pressure_sealevel;temperature
76381;BMP280;65202;52.520;10.528;2023-06-22T00:01:21;101324.47;;;21.07
76381;BMP280;65202;52.520;10.528;2023-06-22T00:03:50;101333.75;;;21.00
76381;BMP280;65202;52.520;10.528;2023-06-22T00:06:17;101334.47;;;20.88
76381;BMP280;65202;52.520;10.528;2023-06-22T00:08:44;101330.03;;;20.73
76381;BMP280;65202;52.520;10.528;2023-06-22T00:11:11;101332.75;;;20.87
76381;BMP280;65202;52.520;10.528;2023-06-22T00:13:39;101329.75;;;20.55
76381;BMP280;65202;52.520;10.528;2023-06-22T00:16:06;101331.06;;;20.28
76381;BMP280;65202;52.520;10.528;2023-06-22T00:18:34;101335.34;;;20.29
76381;BMP280;65202;52.520;10.528;2023-06-22T00:21:01;101331.59;;;20.64
76381;BMP280;65202;52.520;10.528;2023-06-22T00:23:28;101323.03;;;20.59
76381;BMP280;65202;52.520;10.528;2023-06-22T00:25:55;101321.31;;;20.58
76381;BMP280;65202;52.520;10.528;2023-06-22T00:28:22;101324.88;;;20.70
76381;BMP280;65202;52.520;10.528;2023-06-22T00:30:50;101321.50;;;20.11
76381;BMP280;65202;52.520;10.528;2023-06-22T00:33:17;101323.50;;;20.31
76381;BMP280;65202;52.520;10.528;2023-06-22T00:35:44;101331.81;;;20.79
76381;BMP280;65202;52.520;10.528;2023-06-22T00:38:11;101340.44;;;20.30
76381;BMP280;65202;52.520;10.528;2023-06-22T00:40:39;101335.75;;;20.59
76381;BMP280;65202;52.520;10.528;2023-06-22T00:43:06;101335.03;;;20.67
76381;BMP280;65202;52.520;10.528;2023-06-22T00:45:33;101332.16;;;20.43
76381;BMP280;65202;52.520;10.528;2023-06-22T00:48:01;101344.81;;;19.86
76381;BMP280;65202;52.520;10.528;2023-06-22T00:50:32;101340.53;;;20.36
76381;BMP280;65202;52.520;10.528;2023-06-22T00:53:06;101334.06;;;20.02
76381;BMP280;65202;52.520;10.528;2023-06-22T00:55:38;101340.06;;;20.05
76381;BMP280;65202;52.520;10.528;2023-06-22T00:58:11;101339.38;;;20.15
76381;BMP280;65202;52.520;10.528;2023-06-22T01:00:40;101344.69;;;20.30
76381;BMP280;65202;52.520;10.528;2023-06-22T01:03:08;101339.38;;;20.17
76381;BMP280;65202;52.520;10.528;2023-06-22T01:05:38;101352.00;;;20.11
76381;BMP280;65202;52.520;10.528;2023-06-22T01:11:25;101335.94;;;20.13
76381;BMP280;65202;52.520;10.528;2023-06-22T01:14:12;101338.44;;;20.09
76381;BMP280;65202;52.520;10.528;2023-06-22T01:16:47;101334.28;;;20.14
76381;BMP280;65202;52.520;10.528;2023-06-22T01:22:53;101348.28;;;19.91
76381;BMP280;65202;52.520;10.528;2023-06-22T01:25:48;101322.72;;;19.82
76381;BMP280;65202;52.520;10.528;2023-06-22T01:28:45;101321.88;;;19.81
76381;BMP280;65202;52.520;10.528;2023-06-22T01:31:24;101312.50;;;19.79
76381;BMP280;65202;52.520;10.528;2023-06-22T01:33:56;101311.31;;;20.11
76381;BMP280;65202;52.520;10.528;2023-06-22T01:36:27;101361.88;;;19.93
76381;BMP280;65202;52.520;10.528;2023-06-22T01:38:57;101340.19;;;20.13
76381;BMP280;65202;52.520;10.528;2023-06-22T01:41:26;101336.72;;;19.58
76381;BMP280;65202;52.520;10.528;2023-06-22T01:43:56;101329.97;;;19.14
76381;BMP280;65202;52.520;10.528;2023-06-22T01:46:24;101318.22;;;19.19
76381;BMP280;65202;52.520;10.528;2023-06-22T01:48:52;101318.03;;;19.56
76381;BMP280;65202;52.520;10.528;2023-06-22T01:51:20;101307.97;;;19.61
76381;BMP280;65202;52.520;10.528;2023-06-22T01:53:47;101306.38;;;19.19
76381;BMP280;65202;52.520;10.528;2023-06-22T01:56:17;101304.69;;;19.17
76381;BMP280;65202;52.520;10.528;2023-06-22T01:58:54;101310.97;;;19.38
76381;BMP280;65202;52.520;10.528;2023-06-22T02:01:31;101314.88;;;19.20
76381;BMP280;65202;52.520;10.528;2023-06-22T02:04:12;101320.94;;;18.87
76381;BMP280;65202;52.520;10.528;2023-06-22T02:06:47;101331.09;;;19.28
76381;BMP280;65202;52.520;10.528;2023-06-22T02:09:22;101323.06;;;19.51
76381;BMP280;65202;52.520;10.528;2023-06-22T02:11:54;101323.88;;;19.06
76381;BMP280;65202;52.520;10.528;2023-06-22T02:14:24;101320.59;;;19.10
76381;BMP280;65202;52.520;10.528;2023-06-22T02:16:52;101324.91;;;18.74
76381;BMP280;65202;52.520;10.528;2023-06-22T02:19:23;101317.16;;;19.08
76381;BMP280;65202;52.520;10.528;2023-06-22T02:21:52;101319.00;;;19.13
76381;BMP280;65202;52.520;10.528;2023-06-22T02:24:19;101320.13;;;19.30
76381;BMP280;65202;52.520;10.528;2023-06-22T02:26:46;101318.69;;;19.00
76381;BMP280;65202;52.520;10.528;2023-06-22T02:29:13;101318.38;;;18.85
76381;BMP280;65202;52.520;10.528;2023-06-22T02:31:40;101318.66;;;18.57
76381;BMP280;65202;52.520;10.528;2023-06-22T02:34:08;101313.97;;;18.77
76381;BMP280;65202;52.520;10.528;2023-06-22T02:36:35;101308.41;;;18.94
76381;BMP280;65202;52.520;10.528;2023-06-22T02:39:02;101313.97;;;19.18
76381;BMP280;65202;52.520;10.528;2023-06-22T02:41:30;101320.06;;;18.43
76381;BMP280;65202;52.520;10.528;2023-06-22T02:43:57;101315.56;;;18.72
76381;BMP280;65202;52.520;10.528;2023-06-22T02:46:25;101326.00;;;18.85
76381;BMP280;65202;52.520;10.528;2023-06-22T02:48:52;101318.16;;;18.73
76381;BMP280;65202;52.520;10.528;2023-06-22T02:51:19;101318.22;;;18.76
76381;BMP280;65202;52.520;10.528;2023-06-22T02:53:47;101321.00;;;18.48
76381;BMP280;65202;52.520;10.528;2023-06-22T02:56:14;101319.75;;;18.68
76381;BMP280;65202;52.520;10.528;2023-06-22T02:58:42;101316.81;;;18.92
76381;BMP280;65202;52.520;10.528;2023-06-22T03:01:10;101324.91;;;18.74
76381;BMP280;65202;52.520;10.528;2023-06-22T03:03:39;101334.72;;;18.58
76381;BMP280;65202;52.520;10.528;2023-06-22T03:06:07;101334.13;;;18.69
76381;BMP280;65202;52.520;10.528;2023-06-22T03:08:36;101345.16;;;18.71
76381;BMP280;65202;52.520;10.528;2023-06-22T03:11:04;101354.63;;;18.78
76381;BMP280;65202;52.520;10.528;2023-06-22T03:13:31;101356.38;;;18.82
76381;BMP280;65202;52.520;10.528;2023-06-22T03:15:58;101352.88;;;18.76
76381;BMP280;65202;52.520;10.528;2023-06-22T03:18:25;101361.94;;;19.06
76381;BMP280;65202;52.520;10.528;2023-06-22T03:20:52;101368.16;;;18.80
76381;BMP280;65202;52.520;10.528;2023-06-22T03:23:20;101377.50;;;19.21
76381;BMP280;65202;52.520;10.528;2023-06-22T03:25:47;101378.28;;;19.17
76381;BMP280;65202;52.520;10.528;2023-06-22T03:28:14;101375.88;;;18.83
76381;BMP280;65202;52.520;10.528;2023-06-22T03:30:41;101374.16;;;18.82
76381;BMP280;65202;52.520;10.528;2023-06-22T03:33:09;101374.91;;;19.19
76381;BMP280;65202;52.520;10.528;2023-06-22T03:35:36;101380.09;;;18.84
76381;BMP280;65202;52.520;10.528;2023-06-22T03:38:03;101375.91;;;18.86
76381;BMP280;65202;52.520;10.528;2023-06-22T03:40:30;101375.88;;;18.83
76381;BMP280;65202;52.520;10.528;2023-06-22T03:42:58;101380.34;;;18.56
76381;BMP280;65202;52.520;10.528;2023-06-22T03:45:25;101378.91;;;18.67
76381;BMP280;65202;52.520;10.528;2023-06-22T03:47:52;101394.16;;;18.70
76381;BMP280;65202;52.520;10.528;2023-06-22T03:50:20;101393.44;;;18.37
76381;BMP280;65202;52.520;10.528;2023-06-22T03:52:47;101389.41;;;18.84
76381;BMP280;65202;52.520;10.528;2023-06-22T03:55:14;101395.63;;;18.59
76381;BMP280;65202;52.520;10.528;2023-06-22T03:57:42;101383.47;;;18.45
76381;BMP280;65202;52.520;10.528;2023-06-22T04:00:09;101385.38;;;18.55
76381;BMP280;65202;52.520;10.528;2023-06-22T04:02:38;101383.00;;;18.61
76381;BMP280;65202;52.520;10.528;2023-06-22T04:05:05;101376.41;;;18.31
76381;BMP280;65202;52.520;10.528;2023-06-22T04:07:33;101377.38;;;18.75
76381;BMP280;65202;52.520;10.528;2023-06-22T04:10:00;101374.50;;;18.22
76381;BMP280;65202;52.520;10.528;2023-06-22T04:12:28;101371.31;;;18.69
76381;BMP280;65202;52.520;10.528;2023-06-22T04:14:55;101382.63;;;18.84
76381;BMP280;65202;52.520;10.528;2023-06-22T04:17:22;101383.34;;;18.77
76381;BMP280;65202;52.520;10.528;2023-06-22T04:19:52;101377.22;;;18.69
76381;BMP280;65202;52.520;10.528;2023-06-22T04:22:19;101371.81;;;18.93
76381;BMP280;65202;52.520;10.528;2023-06-22T04:24:46;101374.84;;;19.15
76381;BMP280;65202;52.520;10.528;2023-06-22T04:27:13;101377.19;;;19.06
76381;BMP280;65202;52.520;10.528;2023-06-22T04:29:40;101375.66;;;19.12
76381;BMP280;65202;52.520;10.528;2023-06-22T04:32:16;101379.41;;;18.91
76381;BMP280;65202;52.520;10.528;2023-06-22T04:34:43;101364.06;;;19.26
76381;BMP280;65202;52.520;10.528;2023-06-22T04:37:11;101368.06;;;19.15
76381;BMP280;65202;52.520;10.528;2023-06-22T04:39:42;101362.38;;;19.27
76381;BMP280;65202;52.520;10.528;2023-06-22T04:42:12;101359.56;;;19.58
76381;BMP280;65202;52.520;10.528;2023-06-22T04:44:39;101361.91;;;19.46
76381;BMP280;65202;52.520;10.528;2023-06-22T04:47:08;101363.44;;;19.85
76381;BMP280;65202;52.520;10.528;2023-06-22T04:49:36;101357.69;;;19.48
76381;BMP280;65202;52.520;10.528;2023-06-22T04:52:08;101369.97;;;19.71
76381;BMP280;65202;52.520;10.528;2023-06-22T04:54:37;101364.00;;;19.70
76381;BMP280;65202;52.520;10.528;2023-06-22T04:57:07;101374.19;;;19.70
76381;BMP280;65202;52.520;10.528;2023-06-22T04:59:38;101365.91;;;19.82
76381;BMP280;65202;52.520;10.528;2023-06-22T05:02:09;101359.59;;;20.09
76381;BMP280;65202;52.520;10.528;2023-06-22T05:04:36;101364.69;;;20.09
76381;BMP280;65202;52.520;10.528;2023-06-22T05:07:06;101366.38;;;20.07
76381;BMP280;65202;52.520;10.528;2023-06-22T05:09:34;101353.44;;;20.48
76381;BMP280;65202;52.520;10.528;2023-06-22T05:12:02;101357.84;;;20.63
76381;BMP280;65202;52.520;10.528;2023-06-22T05:14:33;101346.66;;;20.52
76381;BMP280;65202;52.520;10.528;2023-06-22T05:17:00;101348.25;;;20.41
76381;BMP280;65202;52.520;10.528;2023-06-22T05:19:30;101342.09;;;20.27
76381;BMP280;65202;52.520;10.528;2023-06-22T05:22:01;101349.06;;;20.40
76381;BMP280;65202;52.520;10.528;2023-06-22T05:24:28;101348.00;;;20.84
76381;BMP280;65202;52.520;10.528;2023-06-22T05:26:55;101351.00;;;20.56
76381;BMP280;65202;52.520;10.528;2023-06-22T05:29:22;101347.88;;;20.75
76381;BMP280;65202;52.520;10.528;2023-06-22T05:31:50;101346.78;;;20.59
76381;BMP280;65202;52.520;10.528;2023-06-22T05:34:17;101351.53;;;20.96
76381;BMP280;65202;52.520;10.528;2023-06-22T05:36:44;101349.28;;;21.24
76381;BMP280;65202;52.520;10.528;2023-06-22T05:39:12;101345.16;;;21.34
76381;BMP280;65202;52.520;10.528;2023-06-22T05:41:41;101348.38;;;21.16
76381;BMP280;65202;52.520;10.528;2023-06-22T05:44:08;101349.28;;;21.24
76381;BMP280;65202;52.520;10.528;2023-06-22T05:46:36;101343.44;;;21.30
76381;BMP280;65202;52.520;10.528;2023-06-22T05:49:03;101341.78;;;21.36
76381;BMP280;65202;52.520;10.528;2023-06-22T05:51:30;101341.81;;;21.41
76381;BMP280;65202;52.520;10.528;2023-06-22T05:53:57;101348.13;;;21.75
76381;BMP280;65202;52.520;10.528;2023-06-22T05:56:25;101337.16;;;21.82
76381;BMP280;65202;52.520;10.528;2023-06-22T05:58:52;101344.66;;;21.66
76381;BMP280;65202;52.520;10.528;2023-06-22T06:01:20;101335.50;;;21.90
76381;BMP280;65202;52.520;10.528;2023-06-22T06:03:47;101333.94;;;22.10
76381;BMP280;65202;52.520;10.528;2023-06-22T06:06:16;101328.84;;;22.15
76381;BMP280;65202;52.520;10.528;2023-06-22T06:08:44;101318.81;;;22.32
76381;BMP280;65202;52.520;10.528;2023-06-22T06:11:11;101329.88;;;22.34
76381;BMP280;65202;52.520;10.528;2023-06-22T06:13:38;101326.56;;;22.53
76381;BMP280;65202;52.520;10.528;2023-06-22T06:16:05;101330.03;;;22.67
76381;BMP280;65202;52.520;10.528;2023-06-22T06:18:32;101319.03;;;22.82
76381;BMP280;65202;52.520;10.528;2023-06-22T06:21:00;101319.00;;;22.76
76381;BMP280;65202;52.520;10.528;2023-06-22T06:23:27;101325.03;;;22.88
76381;BMP280;65202;52.520;10.528;2023-06-22T06:25:54;101321.63;;;22.93
76381;BMP280;65202;52.520;10.528;2023-06-22T06:28:22;101320.81;;;22.99
76381;BMP280;65202;52.520;10.528;2023-06-22T06:30:49;101320.78;;;22.93
76381;BMP280;65202;52.520;10.528;2023-06-22T06:33:19;101325.91;;;22.99
76381;BMP280;65202;52.520;10.528;2023-06-22T06:35:51;101321.72;;;23.13
76381;BMP280;65202;52.520;10.528;2023-06-22T06:38:18;101323.41;;;23.11
76381;BMP280;65202;52.520;10.528;2023-06-22T06:40:45;101323.47;;;23.32
76381;BMP280;65202;52.520;10.528;2023-06-22T06:43:12;101316.63;;;23.23
76381;BMP280;65202;52.520;10.528;2023-06-22T06:45:39;101317.53;;;23.39
76381;BMP280;65202;52.520;10.528;2023-06-22T06:48:06;101307.28;;;23.52
76381;BMP280;65202;52.520;10.528;2023-06-22T06:50:34;101303.91;;;23.59
76381;BMP280;65202;52.520;10.528;2023-06-22T06:53:01;101309.03;;;23.86
76381;BMP280;65202;52.520;10.528;2023-06-22T06:55:29;101298.81;;;23.71
76381;BMP280;65202;52.520;10.528;2023-06-22T06:57:59;101297.94;;;23.90
76381;BMP280;65202;52.520;10.528;2023-06-22T07:00:28;101297.94;;;23.82
76381;BMP280;65202;52.520;10.528;2023-06-22T07:02:55;101291.97;;;23.83
76381;BMP280;65202;52.520;10.528;2023-06-22T07:05:23;101280.91;;;23.96
76381;BMP280;65202;52.520;10.528;2023-06-22T07:07:50;101290.22;;;24.18
76381;BMP280;65202;52.520;10.528;2023-06-22T07:10:17;101289.38;;;24.19
76381;BMP280;65202;52.520;10.528;2023-06-22T07:12:44;101280.03;;;24.02
76381;BMP280;65202;52.520;10.528;2023-06-22T07:15:12;101289.31;;;24.35
76381;BMP280;65202;52.520;10.528;2023-06-22T07:17:40;101283.38;;;24.29
76381;BMP280;65202;52.520;10.528;2023-06-22T07:20:09;101294.44;;;24.49
76381;BMP280;65202;52.520;10.528;2023-06-22T07:22:43;101291.88;;;24.35
76381;BMP280;65202;52.520;10.528;2023-06-22T07:25:14;101302.09;;;24.47
76381;BMP280;65202;52.520;10.528;2023-06-22T07:27:58;101295.19;;;24.69
76381;BMP280;65202;52.520;10.528;2023-06-22T07:30:31;101290.91;;;24.77
76381;BMP280;65202;52.520;10.528;2023-06-22T07:33:01;101283.13;;;24.93
76381;BMP280;65202;52.520;10.528;2023-06-22T07:35:35;101284.69;;;25.16
76381;BMP280;65202;52.520;10.528;2023-06-22T07:38:02;101276.84;;;25.37
76381;BMP280;65202;52.520;10.528;2023-06-22T07:40:32;101273.78;;;25.98
76381;BMP280;65202;52.520;10.528;2023-06-22T07:43:01;101272.91;;;26.01
76381;BMP280;65202;52.520;10.528;2023-06-22T07:45:29;101278.34;;;26.50
76381;BMP280;65202;52.520;10.528;2023-06-22T07:47:56;101274.97;;;27.10
76381;BMP280;65202;52.520;10.528;2023-06-22T07:50:24;101269.66;;;27.20
76381;BMP280;65202;52.520;10.528;2023-06-22T07:52:51;101287.00;;;27.09
76381;BMP280;65202;52.520;10.528;2023-06-22T07:55:19;101290.16;;;26.65
76381;BMP280;65202;52.520;10.528;2023-06-22T07:57:48;101279.25;;;26.45
76381;BMP280;65202;52.520;10.528;2023-06-22T08:00:16;101264.41;;;27.28
76381;BMP280;65202;52.520;10.528;2023-06-22T08:02:45;101262.69;;;27.81
76381;BMP280;65202;52.520;10.528;2023-06-22T08:05:14;101263.44;;;28.73
76381;BMP280;65202;52.520;10.528;2023-06-22T08:07:48;101260.13;;;28.26
76381;BMP280;65202;52.520;10.528;2023-06-22T08:10:16;101240.56;;;28.97
76381;BMP280;65202;52.520;10.528;2023-06-22T08:12:44;101231.28;;;28.89
76381;BMP280;65202;52.520;10.528;2023-06-22T08:15:11;101254.09;;;29.05
76381;BMP280;65202;52.520;10.528;2023-06-22T08:17:39;101251.16;;;29.90
76381;BMP280;65202;52.520;10.528;2023-06-22T08:20:07;101254.78;;;29.49
76381;BMP280;65202;52.520;10.528;2023-06-22T08:22:36;101249.41;;;29.22
76381;BMP280;65202;52.520;10.528;2023-06-22T08:25:04;101248.25;;;28.99
76381;BMP280;65202;52.520;10.528;2023-06-22T08:27:32;101250.38;;;28.80
76381;BMP280;65202;52.520;10.528;2023-06-22T08:30:00;101237.44;;;28.44
76381;BMP280;65202;52.520;10.528;2023-06-22T08:32:27;101249.47;;;28.84
76381;BMP280;65202;52.520;10.528;2023-06-22T08:34:56;101241.72;;;28.84
76381;BMP280;65202;52.520;10.528;2023-06-22T08:37:24;101246.56;;;29.34
76381;BMP280;65202;52.520;10.528;2023-06-22T08:39:59;101237.44;;;29.54
76381;BMP280;65202;52.520;10.528;2023-06-22T08:42:28;101234.50;;;28.61
76381;BMP280;65202;52.520;10.528;2023-06-22T08:44:55;101236.97;;;29.04
76381;BMP280;65202;52.520;10.528;2023-06-22T08:47:22;101235.31;;;29.70
76381;BMP280;65202;52.520;10.528;2023-06-22T08:49:50;101232.44;;;29.80
76381;BMP280;65202;52.520;10.528;2023-06-22T08:52:18;101232.59;;;29.42
76381;BMP280;65202;52.520;10.528;2023-06-22T08:54:47;101233.38;;;29.78
76381;BMP280;65202;52.520;10.528;2023-06-22T08:57:15;101228.00;;;29.53
76381;BMP280;65202;52.520;10.528;2023-06-22T08:59:43;101239.72;;;28.95
76381;BMP280;65202;52.520;10.528;2023-06-22T09:02:10;101237.63;;;28.76
76381;BMP280;65202;52.520;10.528;2023-06-22T09:04:37;101231.63;;;28.72
76381;BMP280;65202;52.520;10.528;2023-06-22T09:07:05;101227.88;;;28.88
76381;BMP280;65202;52.520;10.528;2023-06-22T09:09:32;101220.25;;;29.19
76381;BMP280;65202;52.520;10.528;2023-06-22T09:11:59;101224.16;;;29.00
76381;BMP280;65202;52.520;10.528;2023-06-22T09:14:26;101234.34;;;28.27
76381;BMP280;65202;52.520;10.528;2023-06-22T09:16:54;101233.00;;;28.07
76381;BMP280;65202;52.520;10.528;2023-06-22T09:19:21;101225.47;;;27.98
76381;BMP280;65202;52.520;10.528;2023-06-22T09:21:48;101212.53;;;27.54
76381;BMP280;65202;52.520;10.528;2023-06-22T09:24:15;101212.47;;;27.09
76381;BMP280;65202;52.520;10.528;2023-06-22T09:26:43;101205.00;;;27.45
76381;BMP280;65202;52.520;10.528;2023-06-22T09:29:11;101195.75;;;27.34
76381;BMP280;65202;52.520;10.528;2023-06-22T09:31:38;101198.34;;;27.33
76381;BMP280;65202;52.520;10.528;2023-06-22T09:34:05;101197.22;;;27.48
76381;BMP280;65202;52.520;10.528;2023-06-22T09:36:33;101193.94;;;27.40
76381;BMP280;65202;52.520;10.528;2023-06-22T09:39:00;101189.94;;;27.23
76381;BMP280;65202;52.520;10.528;2023-06-22T09:41:32;101186.31;;;27.35
76381;BMP280;65202;52.520;10.528;2023-06-22T09:43:59;101188.53;;;27.54
76381;BMP280;65202;52.520;10.528;2023-06-22T09:46:26;101183.94;;;27.72
76381;BMP280;65202;52.520;10.528;2023-06-22T09:48:54;101183.88;;;28.19
76381;BMP280;65202;52.520;10.528;2023-06-22T09:51:22;101189.09;;;28.16
76381;BMP280;65202;52.520;10.528;2023-06-22T09:53:51;101175.16;;;28.26
76381;BMP280;65202;52.520;10.528;2023-06-22T09:56:20;101162.47;;;28.56
76381;BMP280;65202;52.520;10.528;2023-06-22T09:58:48;101153.97;;;28.89
76381;BMP280;65202;52.520;10.528;2023-06-22T10:01:18;101152.75;;;29.70
76381;BMP280;65202;52.520;10.528;2023-06-22T10:03:47;101153.72;;;30.25
76381;BMP280;65202;52.520;10.528;2023-06-22T10:06:15;101132.34;;;30.76
76381;BMP280;65202;52.520;10.528;2023-06-22T10:08:42;101138.63;;;30.67
76381;BMP280;65202;52.520;10.528;2023-06-22T10:11:10;101144.28;;;29.95
76381;BMP280;65202;52.520;10.528;2023-06-22T10:13:37;101126.75;;;30.35
76381;BMP280;65202;52.520;10.528;2023-06-22T10:16:04;101133.06;;;29.66
76381;BMP280;65202;52.520;10.528;2023-06-22T10:18:31;101137.66;;;29.85
76381;BMP280;65202;52.520;10.528;2023-06-22T10:20:59;101131.91;;;29.12
76381;BMP280;65202;52.520;10.528;2023-06-22T10:23:26;101128.00;;;28.96
76381;BMP280;65202;52.520;10.528;2023-06-22T10:25:54;101133.41;;;28.87
76381;BMP280;65202;52.520;10.528;2023-06-22T10:28:21;101141.88;;;28.55
76381;BMP280;65202;52.520;10.528;2023-06-22T10:30:48;101134.13;;;28.92
76381;BMP280;65202;52.520;10.528;2023-06-22T10:33:15;101152.97;;;28.19
76381;BMP280;65202;52.520;10.528;2023-06-22T10:35:43;101153.91;;;28.16
76381;BMP280;65202;52.520;10.528;2023-06-22T10:38:10;101143.16;;;28.37
76381;BMP280;65202;52.520;10.528;2023-06-22T10:40:37;101140.72;;;28.30
76381;BMP280;65202;52.520;10.528;2023-06-22T10:43:06;101137.66;;;28.52
76381;BMP280;65202;52.520;10.528;2023-06-22T10:45:33;101145.63;;;28.40
76381;BMP280;65202;52.520;10.528;2023-06-22T10:48:00;101135.50;;;28.33
76381;BMP280;65202;52.520;10.528;2023-06-22T10:50:28;101132.19;;;28.64
76381;BMP280;65202;52.520;10.528;2023-06-22T10:52:55;101122.66;;;29.04
76381;BMP280;65202;52.520;10.528;2023-06-22T10:55:26;101123.78;;;29.59
76381;BMP280;65202;52.520;10.528;2023-06-22T10:58:00;101113.06;;;29.43
76381;BMP280;65202;52.520;10.528;2023-06-22T11:00:27;101110.94;;;29.24
76381;BMP280;65202;52.520;10.528;2023-06-22T11:02:55;101115.50;;;29.48
76381;BMP280;65202;52.520;10.528;2023-06-22T11:05:22;101107.44;;;29.27
76381;BMP280;65202;52.520;10.528;2023-06-22T11:07:49;101106.66;;;29.25
76381;BMP280;65202;52.520;10.528;2023-06-22T11:10:17;101098.03;;;28.92
76381;BMP280;65202;52.520;10.528;2023-06-22T11:12:44;101097.47;;;29.77
76381;BMP280;65202;52.520;10.528;2023-06-22T11:15:12;101086.72;;;29.92
76381;BMP280;65202;52.520;10.528;2023-06-22T11:17:39;101091.50;;;29.13
76381;BMP280;65202;52.520;10.528;2023-06-22T11:20:07;101081.69;;;29.25
76381;BMP280;65202;52.520;10.528;2023-06-22T11:22:39;101079.84;;;29.30
76381;BMP280;65202;52.520;10.528;2023-06-22T11:25:07;101074.94;;;29.21
76381;BMP280;65202;52.520;10.528;2023-06-22T11:27:35;101073.50;;;29.11
76381;BMP280;65202;52.520;10.528;2023-06-22T11:30:03;101078.97;;;28.65
76381;BMP280;65202;52.520;10.528;2023-06-22T11:32:30;101072.59;;;28.79
76381;BMP280;65202;52.520;10.528;2023-06-22T11:34:58;101067.53;;;28.40
76381;BMP280;65202;52.520;10.528;2023-06-22T11:37:25;101062.19;;;28.49
76381;BMP280;65202;52.520;10.528;2023-06-22T11:39:53;101074.09;;;28.15
76381;BMP280;65202;52.520;10.528;2023-06-22T11:42:33;101073.78;;;28.30
76381;BMP280;65202;52.520;10.528;2023-06-22T11:45:01;101071.25;;;27.89
76381;BMP280;65202;52.520;10.528;2023-06-22T11:47:32;101068.56;;;27.94
76381;BMP280;65202;52.520;10.528;2023-06-22T11:49:59;101065.56;;;27.74
76381;BMP280;65202;52.520;10.528;2023-06-22T11:52:26;101062.22;;;27.69
76381;BMP280;65202;52.520;10.528;2023-06-22T11:54:54;101059.25;;;27.88
76381;BMP280;65202;52.520;10.528;2023-06-22T11:57:21;101066.44;;;27.73
76381;BMP280;65202;52.520;10.528;2023-06-22T11:59:48;101062.16;;;27.73
76381;BMP280;65202;52.520;10.528;2023-06-22T12:02:15;101063.47;;;27.48
76381;BMP280;65202;52.520;10.528;2023-06-22T12:04:43;101055.22;;;27.77
76381;BMP280;65202;52.520;10.528;2023-06-22T12:07:10;101053.78;;;28.03
76381;BMP280;65202;52.520;10.528;2023-06-22T12:09:37;101034.25;;;28.32
76381;BMP280;65202;52.520;10.528;2023-06-22T12:12:05;101028.84;;;28.43
76381;BMP280;65202;52.520;10.528;2023-06-22T12:14:32;101023.69;;;28.77
76381;BMP280;65202;52.520;10.528;2023-06-22T12:17:00;101006.81;;;29.60
76381;BMP280;65202;52.520;10.528;2023-06-22T12:19:27;101013.50;;;29.36
76381;BMP280;65202;52.520;10.528;2023-06-22T12:21:55;101019.91;;;29.22
76381;BMP280;65202;52.520;10.528;2023-06-22T12:24:22;101015.09;;;29.40
76381;BMP280;65202;52.520;10.528;2023-06-22T12:26:49;101002.13;;;29.13
76381;BMP280;65202;52.520;10.528;2023-06-22T12:29:16;100993.72;;;29.66
76381;BMP280;65202;52.520;10.528;2023-06-22T12:31:43;100993.97;;;29.28
76381;BMP280;65202;52.520;10.528;2023-06-22T12:34:11;101004.13;;;29.34
76381;BMP280;65202;52.520;10.528;2023-06-22T12:36:38;100988.69;;;29.61
76381;BMP280;65202;52.520;10.528;2023-06-22T12:39:06;100973.50;;;29.80
76381;BMP280;65202;52.520;10.528;2023-06-22T12:41:33;100975.88;;;30.14
76381;BMP280;65202;52.520;10.528;2023-06-22T12:44:00;100973.88;;;30.22
76381;BMP280;65202;52.520;10.528;2023-06-22T12:46:27;100968.84;;;30.45
76381;BMP280;65202;52.520;10.528;2023-06-22T12:48:54;100964.19;;;31.05
76381;BMP280;65202;52.520;10.528;2023-06-22T12:51:24;100957.00;;;30.12
76381;BMP280;65202;52.520;10.528;2023-06-22T12:53:51;100954.88;;;30.75
76381;BMP280;65202;52.520;10.528;2023-06-22T12:56:18;100945.81;;;31.12
76381;BMP280;65202;52.520;10.528;2023-06-22T12:58:46;100950.44;;;31.03
76381;BMP280;65202;52.520;10.528;2023-06-22T13:01:13;100946.97;;;30.55
76381;BMP280;65202;52.520;10.528;2023-06-22T13:03:41;100954.00;;;30.76
76381;BMP280;65202;52.520;10.528;2023-06-22T13:06:09;100947.38;;;30.67
76381;BMP280;65202;52.520;10.528;2023-06-22T13:08:36;100945.63;;;30.44
76381;BMP280;65202;52.520;10.528;2023-06-22T13:11:23;100951.41;;;30.24
76381;BMP280;65202;52.520;10.528;2023-06-22T13:13:50;100950.09;;;30.39
76381;BMP280;65202;52.520;10.528;2023-06-22T13:16:17;100944.88;;;29.60
76381;BMP280;65202;52.520;10.528;2023-06-22T13:18:45;100942.31;;;29.31
76381;BMP280;65202;52.520;10.528;2023-06-22T13:21:12;100950.06;;;29.30
76381;BMP280;65202;52.520;10.528;2023-06-22T13:23:41;100952.94;;;29.19
76381;BMP280;65202;52.520;10.528;2023-06-22T13:26:08;100958.25;;;28.84
76381;BMP280;65202;52.520;10.528;2023-06-22T13:28:35;100960.25;;;28.39
76381;BMP280;65202;52.520;10.528;2023-06-22T13:31:02;100948.91;;;28.79
76381;BMP280;65202;52.520;10.528;2023-06-22T13:33:30;100943.16;;;28.69
76381;BMP280;65202;52.520;10.528;2023-06-22T13:35:57;100956.59;;;28.80
76381;BMP280;65202;52.520;10.528;2023-06-22T13:38:24;100950.59;;;28.48
76381;BMP280;65202;52.520;10.528;2023-06-22T13:40:52;100950.28;;;28.25
76381;BMP280;65202;52.520;10.528;2023-06-22T13:43:19;100946.25;;;28.17
76381;BMP280;65202;52.520;10.528;2023-06-22T13:45:46;100948.91;;;28.11
76381;BMP280;65202;52.520;10.528;2023-06-22T13:48:13;100928.56;;;28.02
76381;BMP280;65202;52.520;10.528;2023-06-22T13:50:41;100924.53;;;28.27
76381;BMP280;65202;52.520;10.528;2023-06-22T13:53:08;100922.06;;;28.22
76381;BMP280;65202;52.520;10.528;2023-06-22T13:55:35;100918.66;;;28.22
76381;BMP280;65202;52.520;10.528;2023-06-22T13:58:02;100914.13;;;27.95